KISM/ISM METAR and TAF weather

Enter ICAO airport designator
Station Type Date Time Source
KISM METAR 2021/09/24 02:56 UTC NOAA

KISM 240256Z AUTO 05006KT 10SM SCT070 31/22 A2988 RMK AO2 SLP118 6//// T03130220 PNO $


Station Type Date Time Source
KISM Decoded METAR 2021/09/24 02:56 UTC NOAA

Orlando, Kissimmee Municipal Airport, FL, United States (KISM) 28-17-23N 081-26-14W
Sep 23, 2021 - 10:56 PM EDT / 2021.09.24 0256 UTC
Wind: from the NE (050 degrees) at 7 MPH (6 KT):0
Visibility: 10 mile(s):0
Sky conditions: partly cloudy
Temperature: 88.3 F (31.3 C)
Heat index: 94.5 F (34.7 C):1
Dew Point: 71.6 F (22.0 C)
Relative Humidity: 57%
Pressure (altimeter): 29.88 in. Hg (1011 hPa)
ob: KISM 240256Z AUTO 05006KT 10SM SCT070 31/22 A2988 RMK AO2 SLP118 6//// T03130220 PNO
cycle: 3

Station Type Date Time Source
KISM TAF 2021/09/23 18:24 UTC NOAA

TAF KISM 231721Z 2318/2418 03007KT P6SM FEW030 SCT045
FM232100 01008KT P6SM VCSH SCT040 SCT070 SCT250
FM240000 04008KT P6SM SCT050
FM240300 01005KT P6SM SCT040
FM241400 05008KT P6SM SCT045
AMD NOT SKED

Example: see airport list